sensor_id;sensor_type;location;lat;lon;timestamp;P1;durP1;ratioP1;P2;durP2;ratioP2
61741;SDS011;47650;49.848;9.620;2023-04-25T00:01:45;8.68;;;7.80;;
61741;SDS011;47650;49.848;9.620;2023-04-25T00:04:16;9.38;;;7.78;;
61741;SDS011;47650;49.848;9.620;2023-04-25T00:06:43;15.77;;;9.98;;
61741;SDS011;47650;49.848;9.620;2023-04-25T00:09:14;11.68;;;10.45;;
61741;SDS011;47650;49.848;9.620;2023-04-25T00:11:43;13.25;;;10.70;;
61741;SDS011;47650;49.848;9.620;2023-04-25T00:14:09;14.10;;;12.20;;
61741;SDS011;47650;49.848;9.620;2023-04-25T00:16:34;16.75;;;13.73;;
61741;SDS011;47650;49.848;9.620;2023-04-25T00:19:00;14.48;;;11.88;;
61741;SDS011;47650;49.848;9.620;2023-04-25T00:21:38;14.77;;;10.95;;
61741;SDS011;47650;49.848;9.620;2023-04-25T00:24:07;21.80;;;16.33;;
61741;SDS011;47650;49.848;9.620;2023-04-25T00:26:33;13.85;;;11.38;;
61741;SDS011;47650;49.848;9.620;2023-04-25T00:28:59;14.85;;;13.18;;
61741;SDS011;47650;49.848;9.620;2023-04-25T00:31:28;15.00;;;12.23;;
61741;SDS011;47650;49.848;9.620;2023-04-25T00:33:56;13.18;;;10.88;;
61741;SDS011;47650;49.848;9.620;2023-04-25T00:36:34;13.85;;;11.65;;
61741;SDS011;47650;49.848;9.620;2023-04-25T00:38:59;14.32;;;10.35;;
61741;SDS011;47650;49.848;9.620;2023-04-25T00:41:25;10.50;;;9.45;;
61741;SDS011;47650;49.848;9.620;2023-04-25T00:43:54;11.98;;;10.57;;
61741;SDS011;47650;49.848;9.620;2023-04-25T00:46:21;13.02;;;11.35;;
61741;SDS011;47650;49.848;9.620;2023-04-25T00:48:46;13.32;;;10.48;;
61741;SDS011;47650;49.848;9.620;2023-04-25T00:51:13;10.98;;;9.88;;
61741;SDS011;47650;49.848;9.620;2023-04-25T00:53:41;14.35;;;12.23;;
61741;SDS011;47650;49.848;9.620;2023-04-25T00:56:09;9.98;;;8.30;;
61741;SDS011;47650;49.848;9.620;2023-04-25T00:58:36;7.32;;;5.78;;
61741;SDS011;47650;49.848;9.620;2023-04-25T01:01:06;10.57;;;9.15;;
61741;SDS011;47650;49.848;9.620;2023-04-25T01:03:32;8.50;;;7.20;;
61741;SDS011;47650;49.848;9.620;2023-04-25T01:06:01;8.15;;;6.30;;
61741;SDS011;47650;49.848;9.620;2023-04-25T01:08:28;7.57;;;6.78;;
61741;SDS011;47650;49.848;9.620;2023-04-25T01:10:55;8.68;;;7.78;;
61741;SDS011;47650;49.848;9.620;2023-04-25T01:13:20;10.48;;;9.20;;
61741;SDS011;47650;49.848;9.620;2023-04-25T01:15:47;8.95;;;8.00;;
61741;SDS011;47650;49.848;9.620;2023-04-25T01:18:13;11.20;;;9.35;;
61741;SDS011;47650;49.848;9.620;2023-04-25T01:20:41;14.38;;;9.77;;
61741;SDS011;47650;49.848;9.620;2023-04-25T01:23:06;9.02;;;4.72;;
61741;SDS011;47650;49.848;9.620;2023-04-25T01:25:33;10.07;;;7.35;;
61741;SDS011;47650;49.848;9.620;2023-04-25T01:27:59;7.72;;;5.97;;
61741;SDS011;47650;49.848;9.620;2023-04-25T01:30:27;11.15;;;7.90;;
61741;SDS011;47650;49.848;9.620;2023-04-25T01:32:57;9.52;;;5.90;;
61741;SDS011;47650;49.848;9.620;2023-04-25T01:35:24;8.95;;;6.95;;
61741;SDS011;47650;49.848;9.620;2023-04-25T01:37:50;6.38;;;5.10;;
61741;SDS011;47650;49.848;9.620;2023-04-25T01:40:16;10.85;;;8.18;;
61741;SDS011;47650;49.848;9.620;2023-04-25T01:42:44;7.38;;;6.25;;
61741;SDS011;47650;49.848;9.620;2023-04-25T01:45:10;11.35;;;8.73;;
61741;SDS011;47650;49.848;9.620;2023-04-25T01:47:38;25.25;;;12.77;;
61741;SDS011;47650;49.848;9.620;2023-04-25T01:50:06;16.45;;;11.38;;
61741;SDS011;47650;49.848;9.620;2023-04-25T01:55:05;25.17;;;14.15;;
61741;SDS011;47650;49.848;9.620;2023-04-25T01:57:32;13.75;;;10.00;;
61741;SDS011;47650;49.848;9.620;2023-04-25T01:59:59;10.55;;;8.40;;
61741;SDS011;47650;49.848;9.620;2023-04-25T02:02:28;11.35;;;9.13;;
61741;SDS011;47650;49.848;9.620;2023-04-25T02:04:59;11.88;;;9.65;;
61741;SDS011;47650;49.848;9.620;2023-04-25T02:07:26;11.40;;;8.77;;
61741;SDS011;47650;49.848;9.620;2023-04-25T02:09:52;10.40;;;8.45;;
61741;SDS011;47650;49.848;9.620;2023-04-25T02:12:17;16.25;;;11.65;;
61741;SDS011;47650;49.848;9.620;2023-04-25T02:14:42;6.50;;;5.38;;
61741;SDS011;47650;49.848;9.620;2023-04-25T02:17:10;7.05;;;6.35;;
61741;SDS011;47650;49.848;9.620;2023-04-25T02:19:37;7.45;;;6.25;;
61741;SDS011;47650;49.848;9.620;2023-04-25T02:22:03;7.25;;;5.22;;
61741;SDS011;47650;49.848;9.620;2023-04-25T02:24:28;5.75;;;5.15;;
61741;SDS011;47650;49.848;9.620;2023-04-25T02:27:00;8.40;;;6.38;;
61741;SDS011;47650;49.848;9.620;2023-04-25T02:29:25;6.88;;;6.05;;
61741;SDS011;47650;49.848;9.620;2023-04-25T02:31:52;7.60;;;6.80;;
61741;SDS011;47650;49.848;9.620;2023-04-25T02:34:17;6.80;;;5.28;;
61741;SDS011;47650;49.848;9.620;2023-04-25T02:36:49;10.27;;;7.57;;
61741;SDS011;47650;49.848;9.620;2023-04-25T02:39:23;5.93;;;5.32;;
61741;SDS011;47650;49.848;9.620;2023-04-25T02:41:51;7.53;;;5.90;;
61741;SDS011;47650;49.848;9.620;2023-04-25T02:44:17;9.70;;;8.73;;
61741;SDS011;47650;49.848;9.620;2023-04-25T02:46:42;11.27;;;8.63;;
61741;SDS011;47650;49.848;9.620;2023-04-25T02:49:08;7.78;;;6.65;;
61741;SDS011;47650;49.848;9.620;2023-04-25T02:51:33;8.85;;;7.32;;
61741;SDS011;47650;49.848;9.620;2023-04-25T02:54:00;9.43;;;7.88;;
61741;SDS011;47650;49.848;9.620;2023-04-25T02:56:27;8.18;;;6.47;;
61741;SDS011;47650;49.848;9.620;2023-04-25T02:58:53;11.68;;;8.90;;
61741;SDS011;47650;49.848;9.620;2023-04-25T03:01:19;9.60;;;8.35;;
61741;SDS011;47650;49.848;9.620;2023-04-25T03:03:45;8.57;;;6.97;;
61741;SDS011;47650;49.848;9.620;2023-04-25T03:06:11;9.63;;;7.07;;
61741;SDS011;47650;49.848;9.620;2023-04-25T03:08:36;8.85;;;7.78;;
61741;SDS011;47650;49.848;9.620;2023-04-25T03:11:04;13.40;;;9.30;;
61741;SDS011;47650;49.848;9.620;2023-04-25T03:13:34;8.48;;;7.20;;
61741;SDS011;47650;49.848;9.620;2023-04-25T03:16:10;19.85;;;13.75;;
61741;SDS011;47650;49.848;9.620;2023-04-25T03:18:35;19.77;;;12.48;;
61741;SDS011;47650;49.848;9.620;2023-04-25T03:21:02;16.77;;;12.20;;
61741;SDS011;47650;49.848;9.620;2023-04-25T03:23:28;14.32;;;11.27;;
61741;SDS011;47650;49.848;9.620;2023-04-25T03:25:53;18.45;;;13.05;;
61741;SDS011;47650;49.848;9.620;2023-04-25T03:28:19;29.33;;;17.27;;
61741;SDS011;47650;49.848;9.620;2023-04-25T03:30:45;20.38;;;14.13;;
61741;SDS011;47650;49.848;9.620;2023-04-25T03:33:10;24.45;;;14.95;;
61741;SDS011;47650;49.848;9.620;2023-04-25T03:35:43;29.52;;;17.30;;
61741;SDS011;47650;49.848;9.620;2023-04-25T03:38:08;14.32;;;11.50;;
61741;SDS011;47650;49.848;9.620;2023-04-25T03:40:34;21.55;;;14.38;;
61741;SDS011;47650;49.848;9.620;2023-04-25T03:42:59;16.27;;;12.30;;
61741;SDS011;47650;49.848;9.620;2023-04-25T03:45:25;24.45;;;17.45;;
61741;SDS011;47650;49.848;9.620;2023-04-25T03:47:51;14.77;;;11.85;;
61741;SDS011;47650;49.848;9.620;2023-04-25T03:50:22;23.00;;;15.77;;
61741;SDS011;47650;49.848;9.620;2023-04-25T03:52:48;20.75;;;15.32;;
61741;SDS011;47650;49.848;9.620;2023-04-25T03:55:14;23.73;;;16.88;;
61741;SDS011;47650;49.848;9.620;2023-04-25T03:57:40;19.13;;;14.50;;
61741;SDS011;47650;49.848;9.620;2023-04-25T04:00:06;18.33;;;13.65;;
61741;SDS011;47650;49.848;9.620;2023-04-25T04:02:32;22.10;;;15.45;;
61741;SDS011;47650;49.848;9.620;2023-04-25T04:05:03;18.60;;;14.95;;
61741;SDS011;47650;49.848;9.620;2023-04-25T04:07:31;29.13;;;18.00;;
61741;SDS011;47650;49.848;9.620;2023-04-25T04:09:57;30.92;;;18.25;;
61741;SDS011;47650;49.848;9.620;2023-04-25T04:12:23;23.08;;;15.88;;
61741;SDS011;47650;49.848;9.620;2023-04-25T04:14:48;22.65;;;17.00;;
61741;SDS011;47650;49.848;9.620;2023-04-25T04:17:15;20.48;;;16.50;;
61741;SDS011;47650;49.848;9.620;2023-04-25T04:19:40;28.15;;;19.45;;
61741;SDS011;47650;49.848;9.620;2023-04-25T04:22:07;25.55;;;18.77;;
61741;SDS011;47650;49.848;9.620;2023-04-25T04:24:34;24.38;;;17.48;;
61741;SDS011;47650;49.848;9.620;2023-04-25T04:26:59;28.65;;;20.48;;
61741;SDS011;47650;49.848;9.620;2023-04-25T04:29:30;22.38;;;17.63;;
61741;SDS011;47650;49.848;9.620;2023-04-25T04:31:56;24.35;;;18.88;;
61741;SDS011;47650;49.848;9.620;2023-04-25T04:34:22;33.13;;;21.58;;
61741;SDS011;47650;49.848;9.620;2023-04-25T04:36:50;29.92;;;22.27;;
61741;SDS011;47650;49.848;9.620;2023-04-25T04:39:16;36.92;;;23.08;;
61741;SDS011;47650;49.848;9.620;2023-04-25T04:41:43;24.02;;;19.13;;
61741;SDS011;47650;49.848;9.620;2023-04-25T04:44:10;24.20;;;16.95;;
61741;SDS011;47650;49.848;9.620;2023-04-25T04:46:36;18.70;;;15.73;;
61741;SDS011;47650;49.848;9.620;2023-04-25T04:49:06;20.33;;;16.15;;
61741;SDS011;47650;49.848;9.620;2023-04-25T04:51:33;19.98;;;15.77;;
61741;SDS011;47650;49.848;9.620;2023-04-25T04:54:00;29.17;;;19.25;;
61741;SDS011;47650;49.848;9.620;2023-04-25T04:56:27;22.55;;;15.48;;
61741;SDS011;47650;49.848;9.620;2023-04-25T04:58:55;20.50;;;16.33;;
61741;SDS011;47650;49.848;9.620;2023-04-25T05:01:23;21.63;;;16.58;;
61741;SDS011;47650;49.848;9.620;2023-04-25T05:03:49;21.88;;;17.58;;
61741;SDS011;47650;49.848;9.620;2023-04-25T05:06:15;19.67;;;15.70;;
61741;SDS011;47650;49.848;9.620;2023-04-25T05:08:42;17.33;;;15.50;;
61741;SDS011;47650;49.848;9.620;2023-04-25T05:11:08;17.48;;;15.35;;
61741;SDS011;47650;49.848;9.620;2023-04-25T05:13:33;19.52;;;16.63;;
61741;SDS011;47650;49.848;9.620;2023-04-25T05:16:00;17.90;;;15.35;;
61741;SDS011;47650;49.848;9.620;2023-04-25T05:18:26;18.92;;;16.73;;
61741;SDS011;47650;49.848;9.620;2023-04-25T05:20:52;19.35;;;15.93;;
61741;SDS011;47650;49.848;9.620;2023-04-25T05:23:18;19.30;;;17.30;;
61741;SDS011;47650;49.848;9.620;2023-04-25T05:25:44;20.08;;;17.73;;
61741;SDS011;47650;49.848;9.620;2023-04-25T05:28:10;21.25;;;16.63;;
61741;SDS011;47650;49.848;9.620;2023-04-25T05:30:37;18.08;;;15.98;;
61741;SDS011;47650;49.848;9.620;2023-04-25T05:33:03;15.85;;;12.27;;
61741;SDS011;47650;49.848;9.620;2023-04-25T05:35:30;14.05;;;12.60;;
61741;SDS011;47650;49.848;9.620;2023-04-25T05:37:55;13.73;;;12.18;;
61741;SDS011;47650;49.848;9.620;2023-04-25T05:40:21;14.77;;;10.80;;
61741;SDS011;47650;49.848;9.620;2023-04-25T05:42:47;12.48;;;8.73;;
61741;SDS011;47650;49.848;9.620;2023-04-25T05:45:12;13.15;;;9.23;;
61741;SDS011;47650;49.848;9.620;2023-04-25T05:47:38;12.05;;;8.63;;
61741;SDS011;47650;49.848;9.620;2023-04-25T05:52:39;10.00;;;7.00;;
61741;SDS011;47650;49.848;9.620;2023-04-25T05:55:04;11.68;;;7.72;;
61741;SDS011;47650;49.848;9.620;2023-04-25T05:59:58;13.50;;;8.82;;
61741;SDS011;47650;49.848;9.620;2023-04-25T06:02:23;11.85;;;8.32;;
61741;SDS011;47650;49.848;9.620;2023-04-25T06:04:49;9.30;;;8.00;;
61741;SDS011;47650;49.848;9.620;2023-04-25T06:07:15;8.63;;;7.40;;
61741;SDS011;47650;49.848;9.620;2023-04-25T06:09:41;10.50;;;7.35;;
61741;SDS011;47650;49.848;9.620;2023-04-25T06:12:10;11.02;;;7.30;;
61741;SDS011;47650;49.848;9.620;2023-04-25T06:14:36;13.52;;;7.57;;
61741;SDS011;47650;49.848;9.620;2023-04-25T06:17:03;10.57;;;6.97;;
61741;SDS011;47650;49.848;9.620;2023-04-25T06:19:33;10.05;;;7.03;;
61741;SDS011;47650;49.848;9.620;2023-04-25T06:22:01;10.77;;;7.05;;
61741;SDS011;47650;49.848;9.620;2023-04-25T06:24:27;9.32;;;6.85;;
61741;SDS011;47650;49.848;9.620;2023-04-25T06:26:53;8.88;;;5.75;;
61741;SDS011;47650;49.848;9.620;2023-04-25T06:31:56;9.85;;;6.63;;
61741;SDS011;47650;49.848;9.620;2023-04-25T06:34:22;8.38;;;5.60;;
61741;SDS011;47650;49.848;9.620;2023-04-25T06:36:47;7.13;;;6.30;;
61741;SDS011;47650;49.848;9.620;2023-04-25T06:39:14;9.70;;;5.45;;
61741;SDS011;47650;49.848;9.620;2023-04-25T06:41:41;9.68;;;5.50;;
61741;SDS011;47650;49.848;9.620;2023-04-25T06:44:09;8.35;;;5.10;;
61741;SDS011;47650;49.848;9.620;2023-04-25T06:46:39;18.13;;;8.05;;
61741;SDS011;47650;49.848;9.620;2023-04-25T06:49:05;15.32;;;7.45;;
61741;SDS011;47650;49.848;9.620;2023-04-25T06:51:36;26.02;;;9.30;;
61741;SDS011;47650;49.848;9.620;2023-04-25T06:54:01;10.65;;;6.05;;
61741;SDS011;47650;49.848;9.620;2023-04-25T06:56:29;8.43;;;4.70;;
61741;SDS011;47650;49.848;9.620;2023-04-25T06:58:56;22.38;;;8.25;;
61741;SDS011;47650;49.848;9.620;2023-04-25T07:01:21;15.15;;;5.45;;
61741;SDS011;47650;49.848;9.620;2023-04-25T07:03:47;9.82;;;5.05;;
61741;SDS011;47650;49.848;9.620;2023-04-25T07:06:13;9.40;;;4.25;;
61741;SDS011;47650;49.848;9.620;2023-04-25T07:08:38;6.43;;;4.55;;
61741;SDS011;47650;49.848;9.620;2023-04-25T07:11:05;9.50;;;4.50;;
61741;SDS011;47650;49.848;9.620;2023-04-25T07:13:30;7.72;;;4.20;;
61741;SDS011;47650;49.848;9.620;2023-04-25T07:15:55;8.10;;;3.40;;
61741;SDS011;47650;49.848;9.620;2023-04-25T07:18:23;8.68;;;3.95;;
61741;SDS011;47650;49.848;9.620;2023-04-25T07:20:49;8.73;;;3.22;;
61741;SDS011;47650;49.848;9.620;2023-04-25T07:23:14;6.85;;;3.33;;
61741;SDS011;47650;49.848;9.620;2023-04-25T07:25:40;7.13;;;3.78;;
61741;SDS011;47650;49.848;9.620;2023-04-25T07:28:05;7.25;;;3.25;;
61741;SDS011;47650;49.848;9.620;2023-04-25T07:30:31;6.90;;;3.53;;
61741;SDS011;47650;49.848;9.620;2023-04-25T07:33:02;8.45;;;3.45;;
61741;SDS011;47650;49.848;9.620;2023-04-25T07:35:28;6.65;;;2.70;;
61741;SDS011;47650;49.848;9.620;2023-04-25T07:37:53;6.90;;;3.08;;
61741;SDS011;47650;49.848;9.620;2023-04-25T07:40:20;5.50;;;2.63;;
61741;SDS011;47650;49.848;9.620;2023-04-25T07:42:46;4.43;;;2.72;;
61741;SDS011;47650;49.848;9.620;2023-04-25T07:45:14;7.35;;;2.95;;
61741;SDS011;47650;49.848;9.620;2023-04-25T07:47:40;7.05;;;2.67;;
61741;SDS011;47650;49.848;9.620;2023-04-25T07:50:06;5.22;;;2.70;;
61741;SDS011;47650;49.848;9.620;2023-04-25T07:52:31;7.20;;;2.72;;
61741;SDS011;47650;49.848;9.620;2023-04-25T07:55:03;5.00;;;3.00;;
61741;SDS011;47650;49.848;9.620;2023-04-25T07:57:29;5.40;;;2.10;;
61741;SDS011;47650;49.848;9.620;2023-04-25T07:59:57;5.25;;;2.40;;
61741;SDS011;47650;49.848;9.620;2023-04-25T08:02:23;3.17;;;2.13;;
61741;SDS011;47650;49.848;9.620;2023-04-25T08:04:53;5.82;;;2.47;;
61741;SDS011;47650;49.848;9.620;2023-04-25T08:07:18;5.15;;;2.42;;
61741;SDS011;47650;49.848;9.620;2023-04-25T08:09:46;4.68;;;2.47;;
61741;SDS011;47650;49.848;9.620;2023-04-25T08:12:13;3.55;;;2.33;;
61741;SDS011;47650;49.848;9.620;2023-04-25T08:14:41;3.20;;;2.40;;
61741;SDS011;47650;49.848;9.620;2023-04-25T08:17:09;6.47;;;3.38;;
61741;SDS011;47650;49.848;9.620;2023-04-25T08:19:35;4.50;;;2.20;;
61741;SDS011;47650;49.848;9.620;2023-04-25T08:22:03;4.13;;;2.80;;
61741;SDS011;47650;49.848;9.620;2023-04-25T08:24:33;6.57;;;2.58;;
61741;SDS011;47650;49.848;9.620;2023-04-25T08:26:58;5.55;;;2.50;;
61741;SDS011;47650;49.848;9.620;2023-04-25T08:29:25;4.22;;;3.00;;
61741;SDS011;47650;49.848;9.620;2023-04-25T08:31:56;4.22;;;2.90;;
61741;SDS011;47650;49.848;9.620;2023-04-25T08:34:21;4.20;;;2.85;;
61741;SDS011;47650;49.848;9.620;2023-04-25T08:36:47;3.20;;;2.80;;
61741;SDS011;47650;49.848;9.620;2023-04-25T08:39:14;4.95;;;2.35;;
61741;SDS011;47650;49.848;9.620;2023-04-25T08:41:40;4.57;;;2.47;;
61741;SDS011;47650;49.848;9.620;2023-04-25T08:44:11;6.22;;;3.00;;
61741;SDS011;47650;49.848;9.620;2023-04-25T08:46:38;3.80;;;2.97;;
61741;SDS011;47650;49.848;9.620;2023-04-25T08:49:07;4.00;;;2.80;;
61741;SDS011;47650;49.848;9.620;2023-04-25T08:51:44;7.18;;;3.60;;
61741;SDS011;47650;49.848;9.620;2023-04-25T08:54:16;3.17;;;2.15;;
61741;SDS011;47650;49.848;9.620;2023-04-25T08:56:45;4.25;;;2.25;;
61741;SDS011;47650;49.848;9.620;2023-04-25T08:59:14;4.70;;;2.75;;
61741;SDS011;47650;49.848;9.620;2023-04-25T09:01:39;3.05;;;1.80;;
61741;SDS011;47650;49.848;9.620;2023-04-25T09:04:05;4.22;;;2.20;;
61741;SDS011;47650;49.848;9.620;2023-04-25T09:06:32;4.82;;;2.50;;
61741;SDS011;47650;49.848;9.620;2023-04-25T09:09:05;5.30;;;2.55;;
61741;SDS011;47650;49.848;9.620;2023-04-25T09:14:11;3.40;;;2.20;;
61741;SDS011;47650;49.848;9.620;2023-04-25T09:17:00;4.32;;;2.92;;
61741;SDS011;47650;49.848;9.620;2023-04-25T09:19:30;4.40;;;2.40;;
61741;SDS011;47650;49.848;9.620;2023-04-25T09:22:03;4.22;;;2.60;;
61741;SDS011;47650;49.848;9.620;2023-04-25T09:24:33;6.45;;;2.83;;
61741;SDS011;47650;49.848;9.620;2023-04-25T09:27:11;6.40;;;2.95;;
61741;SDS011;47650;49.848;9.620;2023-04-25T09:29:42;4.25;;;2.78;;
61741;SDS011;47650;49.848;9.620;2023-04-25T09:32:26;3.63;;;2.20;;
61741;SDS011;47650;49.848;9.620;2023-04-25T09:34:52;5.45;;;3.50;;
61741;SDS011;47650;49.848;9.620;2023-04-25T09:37:27;4.03;;;3.33;;
61741;SDS011;47650;49.848;9.620;2023-04-25T09:39:56;4.28;;;2.40;;
61741;SDS011;47650;49.848;9.620;2023-04-25T09:42:25;8.60;;;7.90;;
61741;SDS011;47650;49.848;9.620;2023-04-25T09:44:53;3.85;;;2.08;;
61741;SDS011;47650;49.848;9.620;2023-04-25T09:47:20;3.80;;;2.20;;
61741;SDS011;47650;49.848;9.620;2023-04-25T09:49:54;3.67;;;2.10;;
61741;SDS011;47650;49.848;9.620;2023-04-25T09:52:24;4.90;;;4.05;;
61741;SDS011;47650;49.848;9.620;2023-04-25T09:54:58;3.88;;;2.10;;
61741;SDS011;47650;49.848;9.620;2023-04-25T09:57:25;6.15;;;2.85;;
61741;SDS011;47650;49.848;9.620;2023-04-25T09:59:51;4.85;;;2.42;;
61741;SDS011;47650;49.848;9.620;2023-04-25T10:02:19;4.07;;;2.40;;
61741;SDS011;47650;49.848;9.620;2023-04-25T10:04:53;6.78;;;4.32;;
61741;SDS011;47650;49.848;9.620;2023-04-25T10:07:20;6.88;;;4.43;;
61741;SDS011;47650;49.848;9.620;2023-04-25T10:09:54;4.30;;;3.70;;
61741;SDS011;47650;49.848;9.620;2023-04-25T10:12:26;3.25;;;2.15;;
61741;SDS011;47650;49.848;9.620;2023-04-25T10:14:55;2.88;;;1.92;;
61741;SDS011;47650;49.848;9.620;2023-04-25T10:17:22;5.20;;;2.60;;
61741;SDS011;47650;49.848;9.620;2023-04-25T10:19:48;4.50;;;3.03;;
61741;SDS011;47650;49.848;9.620;2023-04-25T10:24:52;4.65;;;2.40;;
61741;SDS011;47650;49.848;9.620;2023-04-25T10:27:18;4.68;;;2.28;;
61741;SDS011;47650;49.848;9.620;2023-04-25T10:29:43;4.93;;;2.20;;
61741;SDS011;47650;49.848;9.620;2023-04-25T10:32:11;6.15;;;2.83;;
61741;SDS011;47650;49.848;9.620;2023-04-25T10:34:43;3.80;;;2.60;;
61741;SDS011;47650;49.848;9.620;2023-04-25T10:37:13;3.83;;;2.05;;
61741;SDS011;47650;49.848;9.620;2023-04-25T10:39:39;3.45;;;2.50;;
61741;SDS011;47650;49.848;9.620;2023-04-25T10:42:06;4.25;;;2.20;;
61741;SDS011;47650;49.848;9.620;2023-04-25T10:44:33;8.25;;;2.10;;
61741;SDS011;47650;49.848;9.620;2023-04-25T10:47:00;3.90;;;2.80;;
61741;SDS011;47650;49.848;9.620;2023-04-25T10:49:33;4.03;;;2.65;;
61741;SDS011;47650;49.848;9.620;2023-04-25T10:52:16;4.25;;;2.55;;
61741;SDS011;47650;49.848;9.620;2023-04-25T10:54:53;3.75;;;2.47;;
61741;SDS011;47650;49.848;9.620;2023-04-25T10:57:55;5.13;;;2.47;;
61741;SDS011;47650;49.848;9.620;2023-04-25T11:00:15;3.85;;;2.25;;
61741;SDS011;47650;49.848;9.620;2023-04-25T11:02:45;3.75;;;2.22;;
61741;SDS011;47650;49.848;9.620;2023-04-25T11:05:22;5.55;;;2.65;;
61741;SDS011;47650;49.848;9.620;2023-04-25T11:08:00;3.60;;;2.20;;
61741;SDS011;47650;49.848;9.620;2023-04-25T11:10:28;7.20;;;3.30;;
61741;SDS011;47650;49.848;9.620;2023-04-25T11:12:55;7.63;;;2.70;;
61741;SDS011;47650;49.848;9.620;2023-04-25T11:15:21;5.00;;;3.08;;
61741;SDS011;47650;49.848;9.620;2023-04-25T11:17:48;4.88;;;2.70;;
61741;SDS011;47650;49.848;9.620;2023-04-25T11:20:25;5.65;;;2.90;;
61741;SDS011;47650;49.848;9.620;2023-04-25T11:22:59;5.57;;;2.50;;
61741;SDS011;47650;49.848;9.620;2023-04-25T11:25:27;4.55;;;2.90;;
61741;SDS011;47650;49.848;9.620;2023-04-25T11:27:54;3.72;;;2.30;;
61741;SDS011;47650;49.848;9.620;2023-04-25T11:30:22;4.25;;;2.55;;
61741;SDS011;47650;49.848;9.620;2023-04-25T11:32:49;5.28;;;2.80;;
61741;SDS011;47650;49.848;9.620;2023-04-25T11:35:14;4.85;;;2.53;;
61741;SDS011;47650;49.848;9.620;2023-04-25T11:37:42;4.72;;;2.55;;
61741;SDS011;47650;49.848;9.620;2023-04-25T11:40:09;4.50;;;3.08;;
61741;SDS011;47650;49.848;9.620;2023-04-25T11:42:36;3.45;;;2.40;;
61741;SDS011;47650;49.848;9.620;2023-04-25T11:45:12;6.00;;;2.65;;
61741;SDS011;47650;49.848;9.620;2023-04-25T11:47:41;5.45;;;2.72;;
61741;SDS011;47650;49.848;9.620;2023-04-25T11:50:06;6.32;;;2.95;;
61741;SDS011;47650;49.848;9.620;2023-04-25T11:52:40;4.13;;;2.50;;
61741;SDS011;47650;49.848;9.620;2023-04-25T11:55:12;3.55;;;2.40;;
61741;SDS011;47650;49.848;9.620;2023-04-25T11:57:38;7.57;;;3.22;;
61741;SDS011;47650;49.848;9.620;2023-04-25T12:00:07;4.93;;;2.67;;
61741;SDS011;47650;49.848;9.620;2023-04-25T12:02:42;4.47;;;3.13;;
61741;SDS011;47650;49.848;9.620;2023-04-25T12:05:10;5.85;;;2.83;;
61741;SDS011;47650;49.848;9.620;2023-04-25T12:07:36;9.18;;;3.45;;
61741;SDS011;47650;49.848;9.620;2023-04-25T12:10:09;7.78;;;3.60;;
61741;SDS011;47650;49.848;9.620;2023-04-25T12:12:37;6.55;;;3.47;;
61741;SDS011;47650;49.848;9.620;2023-04-25T12:17:38;5.45;;;3.25;;
61741;SDS011;47650;49.848;9.620;2023-04-25T12:20:21;8.23;;;3.53;;
61741;SDS011;47650;49.848;9.620;2023-04-25T12:22:59;5.85;;;3.40;;
61741;SDS011;47650;49.848;9.620;2023-04-25T12:25:40;5.95;;;3.83;;
61741;SDS011;47650;49.848;9.620;2023-04-25T12:28:23;5.80;;;4.10;;
61741;SDS011;47650;49.848;9.620;2023-04-25T12:33:25;5.90;;;3.90;;
61741;SDS011;47650;49.848;9.620;2023-04-25T12:35:56;4.10;;;3.22;;
61741;SDS011;47650;49.848;9.620;2023-04-25T12:38:27;6.40;;;3.58;;
61741;SDS011;47650;49.848;9.620;2023-04-25T12:40:59;5.53;;;3.72;;
61741;SDS011;47650;49.848;9.620;2023-04-25T12:43:25;5.70;;;3.67;;
61741;SDS011;47650;49.848;9.620;2023-04-25T12:45:53;5.72;;;3.70;;
61741;SDS011;47650;49.848;9.620;2023-04-25T12:48:19;4.65;;;3.70;;
61741;SDS011;47650;49.848;9.620;2023-04-25T12:50:51;5.28;;;3.50;;
61741;SDS011;47650;49.848;9.620;2023-04-25T12:53:20;7.95;;;3.53;;
61741;SDS011;47650;49.848;9.620;2023-04-25T12:55:48;5.90;;;3.53;;
61741;SDS011;47650;49.848;9.620;2023-04-25T12:58:13;5.72;;;3.40;;
61741;SDS011;47650;49.848;9.620;2023-04-25T13:00:40;4.03;;;3.05;;
61741;SDS011;47650;49.848;9.620;2023-04-25T13:03:18;3.78;;;2.83;;
61741;SDS011;47650;49.848;9.620;2023-04-25T13:05:43;5.50;;;2.95;;
61741;SDS011;47650;49.848;9.620;2023-04-25T13:08:10;3.50;;;2.53;;
61741;SDS011;47650;49.848;9.620;2023-04-25T13:10:35;3.83;;;3.10;;
61741;SDS011;47650;49.848;9.620;2023-04-25T13:13:02;4.20;;;2.40;;
61741;SDS011;47650;49.848;9.620;2023-04-25T13:15:29;4.35;;;3.05;;
61741;SDS011;47650;49.848;9.620;2023-04-25T13:17:55;3.63;;;2.78;;
61741;SDS011;47650;49.848;9.620;2023-04-25T13:20:21;4.78;;;2.25;;
61741;SDS011;47650;49.848;9.620;2023-04-25T13:22:47;4.25;;;2.60;;
61741;SDS011;47650;49.848;9.620;2023-04-25T13:25:14;5.50;;;2.20;;
61741;SDS011;47650;49.848;9.620;2023-04-25T13:27:42;4.88;;;2.17;;
61741;SDS011;47650;49.848;9.620;2023-04-25T13:30:09;4.20;;;2.40;;
61741;SDS011;47650;49.848;9.620;2023-04-25T13:32:36;5.50;;;2.65;;
61741;SDS011;47650;49.848;9.620;2023-04-25T13:35:07;6.70;;;2.88;;
61741;SDS011;47650;49.848;9.620;2023-04-25T13:37:34;4.28;;;2.72;;
61741;SDS011;47650;49.848;9.620;2023-04-25T13:40:00;3.65;;;2.25;;
61741;SDS011;47650;49.848;9.620;2023-04-25T13:42:29;5.07;;;2.33;;
61741;SDS011;47650;49.848;9.620;2023-04-25T13:44:55;4.88;;;2.22;;
61741;SDS011;47650;49.848;9.620;2023-04-25T13:47:21;3.28;;;1.67;;
61741;SDS011;47650;49.848;9.620;2023-04-25T13:49:47;4.70;;;2.05;;
61741;SDS011;47650;49.848;9.620;2023-04-25T13:52:12;4.05;;;1.90;;
61741;SDS011;47650;49.848;9.620;2023-04-25T13:54:38;4.78;;;2.25;;
61741;SDS011;47650;49.848;9.620;2023-04-25T13:57:04;4.63;;;2.17;;
61741;SDS011;47650;49.848;9.620;2023-04-25T13:59:31;3.72;;;2.28;;
61741;SDS011;47650;49.848;9.620;2023-04-25T14:01:58;4.50;;;2.47;;
61741;SDS011;47650;49.848;9.620;2023-04-25T14:04:23;6.95;;;3.00;;
61741;SDS011;47650;49.848;9.620;2023-04-25T14:06:49;4.45;;;2.67;;
61741;SDS011;47650;49.848;9.620;2023-04-25T14:09:15;4.15;;;2.40;;
61741;SDS011;47650;49.848;9.620;2023-04-25T14:11:41;4.65;;;2.10;;
61741;SDS011;47650;49.848;9.620;2023-04-25T14:14:06;5.38;;;1.95;;
61741;SDS011;47650;49.848;9.620;2023-04-25T14:16:33;5.03;;;2.13;;
61741;SDS011;47650;49.848;9.620;2023-04-25T14:18:59;3.90;;;2.13;;
61741;SDS011;47650;49.848;9.620;2023-04-25T14:21:27;4.97;;;2.05;;
61741;SDS011;47650;49.848;9.620;2023-04-25T14:23:53;4.45;;;2.30;;
61741;SDS011;47650;49.848;9.620;2023-04-25T14:26:19;6.28;;;2.45;;
61741;SDS011;47650;49.848;9.620;2023-04-25T14:28:44;5.18;;;2.80;;
61741;SDS011;47650;49.848;9.620;2023-04-25T14:31:11;6.65;;;3.08;;
61741;SDS011;47650;49.848;9.620;2023-04-25T14:33:37;7.40;;;2.35;;
61741;SDS011;47650;49.848;9.620;2023-04-25T14:36:07;5.03;;;2.13;;
61741;SDS011;47650;49.848;9.620;2023-04-25T14:38:34;5.18;;;2.38;;
61741;SDS011;47650;49.848;9.620;2023-04-25T14:40:59;5.45;;;2.63;;
61741;SDS011;47650;49.848;9.620;2023-04-25T14:43:27;6.82;;;2.50;;
61741;SDS011;47650;49.848;9.620;2023-04-25T14:45:54;7.35;;;2.63;;
61741;SDS011;47650;49.848;9.620;2023-04-25T14:48:20;4.97;;;2.17;;
61741;SDS011;47650;49.848;9.620;2023-04-25T14:50:45;4.75;;;2.30;;
61741;SDS011;47650;49.848;9.620;2023-04-25T14:53:13;5.70;;;2.60;;
61741;SDS011;47650;49.848;9.620;2023-04-25T14:55:38;6.88;;;2.63;;
61741;SDS011;47650;49.848;9.620;2023-04-25T14:58:05;7.07;;;2.20;;
61741;SDS011;47650;49.848;9.620;2023-04-25T15:00:42;5.75;;;2.33;;
61741;SDS011;47650;49.848;9.620;2023-04-25T15:03:10;4.95;;;2.17;;
61741;SDS011;47650;49.848;9.620;2023-04-25T15:05:37;6.45;;;2.33;;